Time;durP1;ratioP1;P1;durP2;ratioP2;P2;SDS_P1;SDS_P2;PMS_P1;PMS_P2;Temp;Humidity;BMP_temperature;BMP_pressure;BME280_temperature;BME280_humidity;BME280_pressure;Samples;Min_cycle;Max_cycle;Signal;HPM_P1;HPM_P2
2022/05/09 00:03:58;;;;;;;9.80;8.90;;;15.40;99.90;;;;;;10482762;28;20270;-83
2022/05/09 00:09:00;;;;;;;10.60;9.50;;;15.30;99.90;;;;;;10482039;28;20213;-84
2022/05/09 00:14:02;;;;;;;10.00;9.10;;;15.20;99.90;;;;;;10478900;28;20192;-82
2022/05/09 00:19:07;;;;;;;9.40;8.70;;;15.20;99.90;;;;;;10488304;28;20641;-83
2022/05/09 00:24:14;;;;;;;9.30;8.63;;;15.10;99.90;;;;;;10471984;28;20223;-83
2022/05/09 00:29:22;;;;;;;10.03;9.23;;;15.10;99.90;;;;;;10483325;28;20217;-85
2022/05/09 00:34:26;;;;;;;9.47;8.73;;;15.00;99.90;;;;;;10502068;28;20254;-83
2022/05/09 00:39:29;;;;;;;10.53;9.73;;;15.00;99.90;;;;;;10502926;28;20736;-85
2022/05/09 00:44:32;;;;;;;9.47;8.83;;;15.00;99.90;;;;;;10502618;28;20295;-84
2022/05/09 00:49:40;;;;;;;10.80;9.90;;;15.00;99.90;;;;;;10489545;28;20213;-83
2022/05/09 00:54:46;;;;;;;11.47;10.50;;;14.90;99.90;;;;;;10501015;28;20196;-82
2022/05/09 00:59:50;;;;;;;11.93;10.97;;;14.90;99.90;;;;;;10475113;28;20260;-84
2022/05/09 01:04:59;;;;;;;12.20;11.17;;;14.90;99.90;;;;;;10501373;28;20228;-85
2022/05/09 01:10:04;;;;;;;11.80;10.80;;;14.90;99.90;;;;;;10483529;28;20212;-83
2022/05/09 01:15:10;;;;;;;11.10;10.20;;;14.80;99.90;;;;;;10494594;28;20279;-83
2022/05/09 01:20:14;;;;;;;13.10;12.03;;;14.80;99.90;;;;;;10479133;28;20668;-83
2022/05/09 01:25:18;;;;;;;11.57;10.37;;;14.80;99.90;;;;;;10479455;28;20229;-83
2022/05/09 01:30:23;;;;;;;10.67;9.87;;;14.70;99.90;;;;;;10494975;28;20311;-84
2022/05/09 01:35:38;;;;;;;13.60;9.80;;;14.70;99.90;;;;;;10483858;28;20726;-82
2022/05/09 01:40:41;;;;;;;11.77;10.87;;;14.70;99.90;;;;;;10509900;28;20228;-82
2022/05/09 01:45:44;;;;;;;12.30;11.30;;;14.70;99.90;;;;;;10480950;28;20248;-81
2022/05/09 01:50:46;;;;;;;12.50;11.37;;;14.60;99.90;;;;;;10475515;28;20213;-81
2022/05/09 01:55:49;;;;;;;13.27;11.90;;;14.50;99.90;;;;;;10494950;28;20606;-82
2022/05/09 02:00:53;;;;;;;13.13;12.10;;;14.50;99.90;;;;;;10500890;28;20223;-83
2022/05/09 02:05:55;;;;;;;12.83;11.83;;;14.40;99.90;;;;;;10479116;28;20624;-83
2022/05/09 02:10:58;;;;;;;12.80;11.80;;;14.40;99.90;;;;;;10494735;28;20266;-83
2022/05/09 02:16:01;;;;;;;13.10;12.00;;;14.40;99.90;;;;;;10477244;28;20200;-82
2022/05/09 02:21:04;;;;;;;13.67;12.50;;;14.40;99.90;;;;;;10478669;28;20710;-81
2022/05/09 02:26:08;;;;;;;11.97;10.97;;;14.40;99.90;;;;;;10494414;28;20262;-83
2022/05/09 02:31:10;;;;;;;12.47;11.47;;;14.30;99.90;;;;;;10474077;28;20739;-82
2022/05/09 02:36:12;;;;;;;12.90;11.80;;;14.30;99.90;;;;;;10494122;28;20197;-82
2022/05/09 02:41:15;;;;;;;12.43;11.40;;;14.30;99.90;;;;;;10478024;28;20255;-83
2022/05/09 02:46:17;;;;;;;12.70;11.73;;;14.30;99.90;;;;;;10503451;28;20199;-83
2022/05/09 02:51:19;;;;;;;12.70;11.70;;;14.30;99.90;;;;;;10495898;28;20260;-83
2022/05/09 02:56:26;;;;;;;12.27;11.37;;;14.30;99.90;;;;;;10495688;28;20635;-83
2022/05/09 03:01:28;;;;;;;11.93;11.03;;;14.20;99.90;;;;;;10494946;28;20563;-81
2022/05/09 03:06:31;;;;;;;12.00;11.20;;;14.20;99.90;;;;;;10479598;28;20200;-81
2022/05/09 03:11:34;;;;;;;13.10;11.80;;;14.10;99.90;;;;;;10478435;28;20231;-82
2022/05/09 03:16:36;;;;;;;12.87;11.90;;;14.10;99.90;;;;;;10493970;28;20234;-82
2022/05/09 03:21:38;;;;;;;11.93;10.80;;;14.00;99.90;;;;;;10493107;28;20357;-82
2022/05/09 03:26:42;;;;;;;12.53;11.33;;;13.90;99.90;;;;;;10484093;28;20203;-84
2022/05/09 03:31:45;;;;;;;13.13;12.13;;;13.90;99.90;;;;;;10493364;28;20220;-84
2022/05/09 03:36:47;;;;;;;12.97;11.97;;;13.90;99.90;;;;;;10477662;28;20239;-81
2022/05/09 03:41:52;;;;;;;13.73;12.53;;;13.90;99.90;;;;;;10508102;28;20680;-84
2022/05/09 03:46:54;;;;;;;12.10;11.00;;;13.90;99.90;;;;;;10486125;28;20216;-82
2022/05/09 03:51:56;;;;;;;13.93;12.77;;;13.90;99.90;;;;;;10506596;28;20207;-86
2022/05/09 03:57:01;;;;;;;13.47;12.33;;;13.80;99.90;;;;;;10506485;28;20228;-84
2022/05/09 04:02:03;;;;;;;12.50;11.57;;;13.80;99.90;;;;;;10500612;28;20772;-83
2022/05/09 04:07:06;;;;;;;13.33;12.30;;;13.80;99.90;;;;;;10492253;28;20217;-82
2022/05/09 04:12:10;;;;;;;14.03;12.83;;;13.80;99.90;;;;;;10480288;28;20246;-82
2022/05/09 04:17:14;;;;;;;14.70;13.30;;;13.80;99.90;;;;;;10498035;28;20244;-82
2022/05/09 04:22:16;;;;;;;14.13;12.93;;;13.80;99.90;;;;;;10524859;28;20212;-83
2022/05/09 04:27:19;;;;;;;13.73;12.53;;;13.80;99.90;;;;;;10490754;28;20217;-82
2022/05/09 04:32:21;;;;;;;14.27;13.10;;;13.90;99.90;;;;;;10493339;28;20201;-82
2022/05/09 04:37:24;;;;;;;14.87;13.57;;;13.90;99.90;;;;;;10497650;28;20722;-84
2022/05/09 04:42:28;;;;;;;14.23;13.13;;;13.90;99.90;;;;;;10494939;28;20221;-82
2022/05/09 04:47:30;;;;;;;14.63;13.43;;;13.90;99.90;;;;;;10501790;28;20589;-84
2022/05/09 04:52:32;;;;;;;14.47;13.27;;;13.90;99.90;;;;;;10498768;28;20201;-83
2022/05/09 04:57:35;;;;;;;15.13;13.93;;;14.00;99.90;;;;;;10498718;28;20303;-82
2022/05/09 05:02:38;;;;;;;15.13;13.73;;;14.00;99.90;;;;;;10480351;28;20205;-83
2022/05/09 05:07:40;;;;;;;14.63;13.43;;;14.00;99.90;;;;;;10481978;28;20224;-82
2022/05/09 05:12:43;;;;;;;16.43;14.93;;;14.00;99.90;;;;;;10499826;28;20200;-82
2022/05/09 05:17:46;;;;;;;15.37;14.17;;;14.10;99.90;;;;;;10484638;28;20224;-84
2022/05/09 05:22:49;;;;;;;15.70;14.40;;;14.20;99.90;;;;;;10498468;28;20209;-84
2022/05/09 05:27:53;;;;;;;16.13;14.70;;;14.30;99.90;;;;;;10513719;28;20251;-84
2022/05/09 05:32:57;;;;;;;16.93;15.63;;;14.40;99.90;;;;;;10478190;28;20208;-83
2022/05/09 05:37:59;;;;;;;18.30;16.80;;;14.40;99.90;;;;;;10527272;22;20232;-79
2022/05/09 05:43:03;;;;;;;17.23;15.93;;;14.50;99.90;;;;;;10515410;28;20231;-79
2022/05/09 05:48:05;;;;;;;17.17;15.77;;;14.60;99.90;;;;;;10534888;28;20306;-78
2022/05/09 05:53:08;;;;;;;17.27;15.87;;;14.70;99.90;;;;;;10531629;28;20260;-78
2022/05/09 05:58:11;;;;;;;16.23;14.57;;;14.80;99.90;;;;;;10536322;28;20288;-79
2022/05/09 06:03:15;;;;;;;18.00;16.40;;;14.80;99.90;;;;;;10521815;28;20216;-79
2022/05/09 06:08:18;;;;;;;17.10;15.60;;;14.90;99.90;;;;;;10509478;28;20203;-79
2022/05/09 06:13:21;;;;;;;17.97;16.57;;;15.00;99.90;;;;;;10513390;28;20680;-81
2022/05/09 06:18:23;;;;;;;17.03;15.53;;;15.10;99.90;;;;;;10521797;28;20243;-79
2022/05/09 06:23:27;;;;;;;17.90;16.40;;;15.20;99.90;;;;;;10534429;28;20299;-80
2022/05/09 06:28:31;;;;;;;18.10;16.60;;;15.30;99.90;;;;;;10529891;28;20326;-79
2022/05/09 06:33:33;;;;;;;16.80;15.40;;;15.50;99.90;;;;;;10529371;28;20189;-78
2022/05/09 06:38:35;;;;;;;15.97;14.60;;;15.70;99.90;;;;;;10515298;28;20261;-79
2022/05/09 06:43:39;;;;;;;16.13;14.80;;;15.90;99.90;;;;;;10528326;28;20288;-80
2022/05/09 06:48:41;;;;;;;15.87;14.60;;;16.00;99.90;;;;;;10536254;28;20298;-79
2022/05/09 06:53:44;;;;;;;15.63;14.43;;;16.10;99.90;;;;;;10525457;28;20224;-79
2022/05/09 06:58:49;;;;;;;15.67;14.40;;;16.20;99.90;;;;;;10523507;28;20240;-79
2022/05/09 07:03:52;;;;;;;13.77;12.67;;;16.40;99.90;;;;;;10536569;28;20299;-78
2022/05/09 07:08:54;;;;;;;14.13;13.03;;;16.50;99.90;;;;;;10530207;28;20254;-80
2022/05/09 07:13:57;;;;;;;12.80;11.70;;;16.80;99.90;;;;;;10514838;28;20243;-80
2022/05/09 07:19:00;;;;;;;12.30;11.23;;;17.20;99.90;;;;;;10525682;28;20257;-80
2022/05/09 07:24:02;;;;;;;11.20;10.30;;;17.60;99.90;;;;;;10536131;28;20272;-79
2022/05/09 07:29:05;;;;;;;12.30;11.30;;;18.00;99.90;;;;;;10542822;28;20227;-80
2022/05/09 07:34:07;;;;;;;11.77;10.77;;;18.40;99.90;;;;;;10529583;28;20462;-79
2022/05/09 07:39:10;;;;;;;10.23;9.43;;;18.80;99.90;;;;;;10530008;28;20232;-79
2022/05/09 07:44:13;;;;;;;10.00;9.20;;;19.20;99.90;;;;;;10542947;28;20279;-80
2022/05/09 07:49:16;;;;;;;9.60;8.80;;;19.50;99.90;;;;;;10555427;28;20230;-80
2022/05/09 07:54:18;;;;;;;9.87;9.00;;;19.90;99.90;;;;;;10545251;28;20195;-79
2022/05/09 07:59:21;;;;;;;8.60;7.77;;;20.30;99.90;;;;;;10546101;28;20235;-80
2022/05/09 08:04:24;;;;;;;9.97;9.17;;;20.70;99.90;;;;;;10546629;28;20251;-80
2022/05/09 08:09:26;;;;;;;9.13;8.43;;;21.10;99.90;;;;;;10535582;28;20253;-80
2022/05/09 08:14:30;;;;;;;9.60;8.70;;;21.50;99.90;;;;;;10535621;28;20188;-80
2022/05/09 08:19:32;;;;;;;10.60;9.60;;;21.90;99.90;;;;;;10547399;28;20211;-80
2022/05/09 08:24:35;;;;;;;9.23;8.33;;;22.40;99.90;;;;;;10549051;28;20212;-80
2022/05/09 08:29:38;;;;;;;9.17;8.47;;;22.80;98.50;;;;;;10546151;28;20675;-80
2022/05/09 08:34:41;;;;;;;8.03;7.43;;;23.10;97.50;;;;;;10547692;28;20238;-80
2022/05/09 08:39:43;;;;;;;8.87;8.03;;;23.50;97.50;;;;;;10544554;28;20228;-80
2022/05/09 08:45:08;;;;;;;8.20;7.70;;;23.90;96.60;;;;;;10543991;28;20621;-80
2022/05/09 08:50:18;;;;;;;8.07;7.50;;;24.20;96.10;;;;;;10538520;28;20223;-80
2022/05/09 08:55:26;;;;;;;7.90;7.20;;;24.50;95.30;;;;;;10525857;28;20227;-81
2022/05/09 09:00:32;;;;;;;7.60;6.90;;;24.70;93.80;;;;;;10543281;28;20302;-81
2022/05/09 09:05:37;;;;;;;6.87;6.37;;;24.80;93.00;;;;;;10546034;28;20730;-80
2022/05/09 09:10:47;;;;;;;7.97;7.27;;;24.70;93.70;;;;;;10545922;28;20218;-80
2022/05/09 09:16:02;;;;;;;7.70;7.10;;;24.70;93.90;;;;;;10544797;28;20192;-80
2022/05/09 09:21:11;;;;;;;7.80;7.20;;;24.80;93.10;;;;;;10524975;28;20247;-81
2022/05/09 09:26:22;;;;;;;7.77;7.17;;;24.80;91.90;;;;;;10535428;28;20597;-80
2022/05/09 09:31:31;;;;;;;11.73;6.57;;;24.80;92.80;;;;;;10541707;28;20220;-80
2022/05/09 09:36:39;;;;;;;7.33;6.83;;;24.70;93.20;;;;;;10543819;28;20188;-79
2022/05/09 09:41:42;;;;;;;7.47;6.70;;;24.90;92.90;;;;;;10540835;28;20231;-78
2022/05/09 09:47:08;;;;;;;9.00;8.10;;;25.20;92.40;;;;;;10538421;28;20224;-79
2022/05/09 09:52:22;;;;;;;7.97;7.20;;;25.60;90.40;;;;;;10539681;28;20514;-79
2022/05/09 09:57:29;;;;;;;7.03;6.30;;;25.70;91.20;;;;;;10544902;28;20207;-79
2022/05/09 10:02:33;;;;;;;7.50;6.90;;;25.70;91.10;;;;;;10542767;28;20196;-79
2022/05/09 10:07:39;;;;;;;7.20;6.60;;;25.80;90.60;;;;;;10542249;28;20224;-79
2022/05/09 10:12:44;;;;;;;6.70;6.30;;;25.80;90.10;;;;;;10537427;28;20249;-79
2022/05/09 10:17:47;;;;;;;7.90;7.10;;;25.40;90.90;;;;;;10530998;28;20230;-79
2022/05/09 10:28:18;;;;;;;8.33;6.20;;;24.10;91.00;;;;;;10542552;28;20257;-78
2022/05/09 10:33:31;;;;;;;7.47;6.90;;;23.60;91.70;;;;;;10535823;28;20260;-78
2022/05/09 10:38:41;;;;;;;5.93;5.53;;;23.30;92.50;;;;;;10533784;28;20667;-78
2022/05/09 10:43:50;;;;;;;6.97;6.27;;;23.10;92.60;;;;;;10532212;28;20226;-79
2022/05/09 10:48:59;;;;;;;7.37;6.87;;;22.90;92.90;;;;;;10536222;28;20216;-79
2022/05/09 10:54:13;;;;;;;7.40;6.70;;;22.70;93.30;;;;;;10527229;28;20269;-79
2022/05/09 10:59:20;;;;;;;6.37;5.87;;;22.50;93.30;;;;;;10533834;28;20220;-79
2022/05/09 11:04:24;;;;;;;7.20;6.50;;;22.30;94.10;;;;;;10523021;28;20452;-78
2022/05/09 11:09:55;;;;;;;6.90;6.37;;;22.20;93.80;;;;;;10518733;28;20220;-78
2022/05/09 11:15:23;;;;;;;6.70;6.20;;;22.40;94.50;;;;;;10530574;28;20211;-78
2022/05/09 11:20:32;;;;;;;7.97;7.27;;;22.40;95.60;;;;;;10533057;28;20223;-79
2022/05/09 11:25:47;;;;;;;7.93;7.33;;;22.40;95.20;;;;;;10535890;28;20220;-79
2022/05/09 11:30:57;;;;;;;7.63;6.93;;;22.40;93.30;;;;;;10537667;28;20224;-80
2022/05/09 11:36:14;;;;;;;7.33;6.83;;;22.40;92.00;;;;;;10542054;28;20207;-80
2022/05/09 11:41:31;;;;;;;10.03;6.20;;;22.30;91.30;;;;;;10532591;28;20251;-81
2022/05/09 11:46:43;;;;;;;6.80;6.27;;;22.20;92.30;;;;;;10544816;28;20219;-81
2022/05/09 11:51:49;;;;;;;7.10;6.57;;;22.10;93.60;;;;;;10533508;28;20223;-79
2022/05/09 11:56:55;;;;;;;6.90;6.30;;;22.00;93.40;;;;;;10535046;28;20207;-79
2022/05/09 12:02:03;;;;;;;7.97;6.10;;;22.00;93.90;;;;;;10540485;28;20639;-79
2022/05/09 12:07:39;;;;;;;6.10;5.70;;;22.10;93.70;;;;;;10547800;28;20227;-80
2022/05/09 12:12:54;;;;;;;6.10;5.80;;;22.10;92.80;;;;;;10523785;28;20200;-78
2022/05/09 12:18:16;;;;;;;7.30;6.60;;;22.10;92.40;;;;;;10546824;28;20679;-79
2022/05/09 12:23:51;;;;;;;5.83;5.43;;;22.30;92.80;;;;;;10520822;28;20196;-81
2022/05/09 12:29:08;;;;;;;6.57;6.17;;;22.30;90.90;;;;;;10542381;28;20230;-79
2022/05/09 12:34:13;;;;;;;6.60;6.13;;;22.30;92.90;;;;;;10536406;28;20191;-79
2022/05/09 12:39:17;;;;;;;6.70;6.20;;;22.30;91.40;;;;;;10528710;28;20736;-79
2022/05/09 12:44:24;;;;;;;6.10;5.60;;;22.30;91.90;;;;;;10539343;28;20212;-78
2022/05/09 12:49:34;;;;;;;5.93;5.50;;;22.20;90.70;;;;;;10529790;28;20231;-78
2022/05/09 12:54:39;;;;;;;6.37;5.97;;;22.30;90.80;;;;;;10537607;28;20203;-77
2022/05/09 12:59:51;;;;;;;6.43;5.93;;;22.30;90.90;;;;;;10532241;28;20598;-77
2022/05/09 13:04:55;;;;;;;6.50;6.10;;;22.40;91.20;;;;;;10532429;28;20537;-78
2022/05/09 13:09:58;;;;;;;6.97;6.50;;;22.30;90.90;;;;;;10531154;28;20293;-79
2022/05/09 13:15:05;;;;;;;6.47;5.87;;;22.30;91.70;;;;;;10534638;28;20239;-79
2022/05/09 13:20:10;;;;;;;6.33;5.90;;;22.10;93.00;;;;;;10530289;28;20596;-79
2022/05/09 13:25:18;;;;;;;6.40;5.80;;;22.10;93.40;;;;;;10531025;28;20251;-80
2022/05/09 13:30:22;;;;;;;6.63;6.13;;;22.10;89.20;;;;;;10535063;28;20223;-78
2022/05/09 13:35:27;;;;;;;6.13;5.73;;;22.10;91.60;;;;;;10498408;28;20189;-78
2022/05/09 13:40:31;;;;;;;6.43;6.03;;;22.10;90.40;;;;;;10516403;28;20234;-79
2022/05/09 13:45:35;;;;;;;7.00;6.40;;;22.10;92.20;;;;;;10522122;28;20269;-79
2022/05/09 13:50:43;;;;;;;7.67;6.97;;;22.10;90.60;;;;;;10527467;28;20258;-80
2022/05/09 13:55:54;;;;;;;6.37;5.87;;;22.20;89.90;;;;;;10531723;28;20308;-81
2022/05/09 14:01:00;;;;;;;6.20;5.80;;;22.40;87.90;;;;;;10529154;28;20224;-78
2022/05/09 14:06:08;;;;;;;5.93;5.50;;;22.50;91.20;;;;;;10503971;28;20222;-79
2022/05/09 14:11:13;;;;;;;6.60;6.20;;;22.50;91.90;;;;;;10497875;28;20745;-79
2022/05/09 14:16:23;;;;;;;5.97;5.57;;;22.50;91.60;;;;;;10532940;28;20195;-79
2022/05/09 14:21:41;;;;;;;6.20;5.80;;;22.60;90.80;;;;;;10520741;28;20294;-79
2022/05/09 14:32:41;;;;;;;5.90;5.50;;;22.80;91.90;;;;;;10541450;28;20548;-79
2022/05/09 14:37:55;;;;;;;7.10;6.40;;;22.90;91.00;;;;;;10529933;28;20219;-79
2022/05/09 14:43:04;;;;;;;8.00;6.37;;;23.00;91.50;;;;;;10516420;28;20193;-79
2022/05/09 14:48:19;;;;;;;6.07;5.57;;;23.10;91.10;;;;;;10502517;28;20223;-78
2022/05/09 14:53:27;;;;;;;5.33;5.03;;;23.10;90.20;;;;;;10528981;28;20205;-78
2022/05/09 14:58:39;;;;;;;5.67;5.37;;;23.00;90.30;;;;;;10522393;28;20727;-81
2022/05/09 15:03:50;;;;;;;7.10;6.50;;;22.80;92.00;;;;;;10502915;28;20239;-77
2022/05/09 15:08:56;;;;;;;6.20;5.80;;;22.60;93.10;;;;;;10528668;28;20218;-78
2022/05/09 15:14:01;;;;;;;6.10;5.80;;;22.30;90.50;;;;;;10509094;28;20262;-79
2022/05/09 15:19:25;;;;;;;7.50;6.90;;;22.10;93.10;;;;;;10522248;28;20238;-80
2022/05/09 15:24:39;;;;;;;6.87;6.37;;;22.00;91.90;;;;;;10511576;28;20220;-79
2022/05/09 15:29:41;;;;;;;7.20;6.70;;;21.80;88.60;;;;;;10520566;28;20216;-80
2022/05/09 15:34:45;;;;;;;6.10;5.70;;;21.90;89.00;;;;;;10504536;28;20222;-80
2022/05/09 15:39:47;;;;;;;6.43;6.00;;;21.90;90.20;;;;;;10528695;28;20760;-78
2022/05/09 15:44:54;;;;;;;6.73;5.57;;;21.90;91.60;;;;;;10526338;28;20220;-78
2022/05/09 15:50:03;;;;;;;6.63;6.03;;;21.80;90.90;;;;;;10519385;28;20269;-79
2022/05/09 15:55:07;;;;;;;6.10;5.70;;;21.70;92.50;;;;;;10514371;28;20192;-80
2022/05/09 16:00:15;;;;;;;5.57;5.20;;;21.80;89.30;;;;;;10533952;28;20533;-81
2022/05/09 16:05:24;;;;;;;6.63;6.13;;;21.80;90.00;;;;;;10548258;28;20204;-80
2022/05/09 16:15:46;;;;;;;6.57;6.17;;;21.80;87.80;;;;;;10528790;28;20196;-80
2022/05/09 16:20:50;;;;;;;5.93;5.53;;;21.80;90.90;;;;;;10543901;28;20672;-79
2022/05/09 16:25:58;;;;;;;5.77;5.27;;;21.80;85.70;;;;;;10545693;28;20208;-80
2022/05/09 16:31:00;;;;;;;6.20;5.70;;;21.80;90.30;;;;;;10537466;28;20226;-79
2022/05/09 16:36:06;;;;;;;6.23;5.83;;;21.80;88.60;;;;;;10533967;28;20692;-81
2022/05/09 16:41:09;;;;;;;6.27;5.77;;;21.80;90.50;;;;;;10534181;28;20762;-83
2022/05/09 16:46:16;;;;;;;7.57;6.20;;;21.70;87.00;;;;;;10550963;28;20220;-82
2022/05/09 16:51:20;;;;;;;6.37;5.87;;;21.80;91.00;;;;;;10541618;28;20299;-81
2022/05/09 16:56:22;;;;;;;6.30;5.80;;;21.70;92.30;;;;;;10526996;28;20656;-82
2022/05/09 17:01:26;;;;;;;6.90;6.30;;;21.60;92.30;;;;;;10534594;28;20223;-82
2022/05/09 17:06:30;;;;;;;6.33;5.83;;;21.50;90.80;;;;;;10545206;28;20215;-82
2022/05/09 17:11:35;;;;;;;7.60;7.03;;;21.40;91.10;;;;;;10543339;28;20283;-83
2022/05/09 17:16:37;;;;;;;8.43;7.73;;;21.40;91.70;;;;;;10548404;28;20569;-82
2022/05/09 17:21:41;;;;;;;7.43;6.93;;;21.40;94.00;;;;;;10548576;28;20212;-83
2022/05/09 17:26:44;;;;;;;7.47;6.50;;;21.30;92.80;;;;;;10540026;28;20220;-83
2022/05/09 17:31:46;;;;;;;7.77;7.17;;;21.30;93.80;;;;;;10530440;28;20220;-82
2022/05/09 17:42:14;;;;;;;6.67;6.27;;;21.20;94.30;;;;;;10520258;22;20224;-83
2022/05/09 17:47:18;;;;;;;7.17;6.67;;;21.20;94.30;;;;;;10475907;28;20217;-83
2022/05/09 17:52:23;;;;;;;7.20;6.70;;;21.20;93.80;;;;;;10469296;28;20216;-83
2022/05/09 17:57:25;;;;;;;7.57;6.87;;;21.20;94.90;;;;;;10485423;28;20200;-84
2022/05/09 18:02:29;;;;;;;6.70;6.30;;;21.20;91.90;;;;;;10491601;28;20569;-84
2022/05/09 18:07:35;;;;;;;6.30;5.90;;;21.20;93.70;;;;;;10474826;28;21075;-83
2022/05/09 18:12:43;;;;;;;7.20;6.60;;;21.10;93.70;;;;;;10482640;28;20277;-83
2022/05/09 18:17:49;;;;;;;6.20;5.70;;;21.10;93.10;;;;;;10462339;28;20224;-84
2022/05/09 18:22:56;;;;;;;6.43;6.03;;;21.10;92.50;;;;;;10462072;28;20595;-84
2022/05/09 18:27:58;;;;;;;6.97;6.37;;;21.10;93.20;;;;;;10474572;28;20227;-84
2022/05/09 18:33:00;;;;;;;6.63;6.13;;;21.00;93.10;;;;;;10481247;28;20232;-83
2022/05/09 18:38:04;;;;;;;6.80;6.30;;;20.90;93.40;;;;;;10476652;28;20304;-81
2022/05/09 18:43:07;;;;;;;7.17;6.67;;;20.90;93.30;;;;;;10480427;28;20284;-84
2022/05/09 18:48:09;;;;;;;8.07;5.80;;;20.80;93.60;;;;;;10484373;28;20260;-83
2022/05/09 18:53:15;;;;;;;7.10;6.40;;;20.70;93.50;;;;;;10466207;28;20228;-83
2022/05/09 18:58:19;;;;;;;6.90;6.47;;;20.60;93.40;;;;;;10503497;28;20222;-83
2022/05/09 19:03:22;;;;;;;7.30;6.70;;;20.50;93.60;;;;;;10478110;28;20718;-82
2022/05/09 19:08:30;;;;;;;7.83;7.00;;;20.40;93.60;;;;;;10474654;28;20250;-83
2022/05/09 19:13:34;;;;;;;7.87;7.27;;;20.30;93.80;;;;;;10480400;28;20250;-83
2022/05/09 19:18:37;;;;;;;7.43;6.83;;;20.20;94.10;;;;;;10470392;28;20220;-83
2022/05/09 19:23:41;;;;;;;8.53;7.73;;;20.10;94.50;;;;;;10455612;28;20730;-82
2022/05/09 19:28:46;;;;;;;8.13;7.53;;;20.00;95.20;;;;;;10457652;28;20669;-82
2022/05/09 19:33:49;;;;;;;8.70;8.00;;;19.90;95.30;;;;;;10468738;28;20200;-82
2022/05/09 19:38:53;;;;;;;8.20;7.60;;;19.70;95.50;;;;;;10488157;28;20317;-83
2022/05/09 19:43:56;;;;;;;8.70;7.90;;;19.70;95.90;;;;;;10480891;28;20200;-82
2022/05/09 19:48:59;;;;;;;8.87;8.07;;;19.60;96.40;;;;;;10480876;28;20294;-83
2022/05/09 19:54:02;;;;;;;8.83;8.13;;;19.40;96.10;;;;;;10492053;28;20578;-82
2022/05/09 19:59:05;;;;;;;9.20;8.40;;;19.40;96.00;;;;;;10481749;28;20662;-83
2022/05/09 20:04:07;;;;;;;11.13;8.73;;;19.30;95.90;;;;;;10456275;28;20197;-83
2022/05/09 20:09:18;;;;;;;9.60;8.90;;;19.20;96.50;;;;;;10475431;28;20228;-83
2022/05/09 20:14:20;;;;;;;9.03;8.17;;;19.10;96.60;;;;;;10465745;28;20193;-84
2022/05/09 20:19:22;;;;;;;9.20;8.47;;;19.00;97.30;;;;;;10467107;28;20224;-83
2022/05/09 20:24:27;;;;;;;8.10;7.50;;;19.00;97.10;;;;;;10471811;28;20291;-83
2022/05/09 20:34:48;;;;;;;8.37;7.77;;;18.90;97.10;;;;;;10485690;28;20211;-82
2022/05/09 20:39:52;;;;;;;8.10;7.60;;;18.80;96.90;;;;;;10472820;28;20274;-83
2022/05/09 20:44:57;;;;;;;9.20;8.50;;;18.70;97.20;;;;;;10449068;28;20205;-84
2022/05/09 20:50:02;;;;;;;8.80;8.07;;;18.60;96.60;;;;;;10455190;28;20260;-84
2022/05/09 20:55:12;;;;;;;7.90;7.40;;;18.50;97.10;;;;;;10487492;28;20742;-85
2022/05/09 21:00:18;;;;;;;8.37;7.63;;;18.50;97.20;;;;;;10458535;28;20232;-84
2022/05/09 21:05:21;;;;;;;8.60;7.40;;;18.40;97.70;;;;;;10465417;28;20251;-84
2022/05/09 21:10:25;;;;;;;8.20;7.50;;;18.30;97.20;;;;;;10460528;28;20274;-84
2022/05/09 21:15:27;;;;;;;7.83;7.23;;;18.20;97.50;;;;;;10484725;28;20201;-86
2022/05/09 21:20:29;;;;;;;8.20;7.60;;;18.20;97.90;;;;;;10493676;28;20259;-86
2022/05/09 21:25:35;;;;;;;8.70;8.00;;;18.10;98.00;;;;;;10473305;28;20213;-85
2022/05/09 21:30:38;;;;;;;8.30;7.60;;;18.00;97.80;;;;;;10458537;28;20274;-85
2022/05/09 21:35:45;;;;;;;7.87;7.27;;;18.00;97.70;;;;;;10485515;28;20200;-85
2022/05/09 21:41:06;;;;;;;8.60;7.80;;;17.90;97.60;;;;;;10485732;28;20352;-85
2022/05/09 21:46:08;;;;;;;10.00;8.00;;;17.80;97.90;;;;;;10465383;28;20219;-85
2022/05/09 21:51:14;;;;;;;8.13;7.53;;;17.80;97.90;;;;;;10499575;28;20284;-85
2022/05/09 21:56:19;;;;;;;8.37;7.80;;;17.70;98.40;;;;;;10490161;28;20232;-85
2022/05/09 22:01:25;;;;;;;9.40;8.70;;;17.70;99.00;;;;;;10488923;28;20696;-85
2022/05/09 22:06:30;;;;;;;7.53;7.00;;;17.60;99.70;;;;;;10496924;28;20252;-86
2022/05/09 22:11:34;;;;;;;8.97;8.37;;;17.60;99.90;;;;;;10476807;28;20224;-85
2022/05/09 22:16:36;;;;;;;8.80;8.20;;;17.60;99.90;;;;;;10459810;28;20197;-85
2022/05/09 22:21:39;;;;;;;8.97;8.30;;;17.60;99.90;;;;;;10463934;28;20307;-86
2022/05/09 22:26:42;;;;;;;9.47;8.83;;;17.60;99.90;;;;;;10478798;28;20235;-86
2022/05/09 22:31:45;;;;;;;9.90;9.10;;;17.60;99.90;;;;;;10502911;28;20219;-85
2022/05/09 22:36:50;;;;;;;9.50;8.80;;;17.60;99.90;;;;;;10475427;28;20250;-86
2022/05/09 22:41:56;;;;;;;9.50;8.80;;;17.60;99.90;;;;;;10471245;28;20224;-85
2022/05/09 22:46:58;;;;;;;10.33;9.53;;;17.50;99.90;;;;;;10478272;28;20224;-83
2022/05/09 22:52:00;;;;;;;9.37;8.63;;;17.50;99.90;;;;;;10450064;28;20248;-83
2022/05/09 22:57:11;;;;;;;10.20;9.40;;;17.50;99.90;;;;;;10480567;28;20228;-84
2022/05/09 23:02:14;;;;;;;10.10;9.10;;;17.40;99.90;;;;;;10456640;28;20558;-84
2022/05/09 23:07:17;;;;;;;10.47;9.67;;;17.30;99.90;;;;;;10481195;28;20304;-83
2022/05/09 23:12:21;;;;;;;10.63;9.60;;;17.20;99.90;;;;;;10476505;28;20269;-83
2022/05/09 23:17:31;;;;;;;9.77;9.07;;;17.20;99.90;;;;;;10459890;28;20212;-84
2022/05/09 23:22:33;;;;;;;11.70;10.60;;;17.10;99.90;;;;;;10474925;28;20288;-84
2022/05/09 23:27:36;;;;;;;11.10;10.30;;;17.00;99.90;;;;;;10453283;28;20260;-83
2022/05/09 23:32:39;;;;;;;9.40;8.63;;;16.90;99.90;;;;;;10479393;28;20535;-84
2022/05/09 23:37:41;;;;;;;10.47;9.77;;;16.90;99.90;;;;;;10461716;28;20233;-83
2022/05/09 23:42:47;;;;;;;10.13;9.23;;;16.80;99.90;;;;;;10490327;28;20209;-84
2022/05/09 23:47:50;;;;;;;10.20;9.50;;;16.80;99.90;;;;;;10471896;28;20312;-83
2022/05/09 23:52:53;;;;;;;10.67;9.73;;;16.80;99.90;;;;;;10493913;28;20201;-85
2022/05/09 23:57:56;;;;;;;10.70;10.00;;;16.70;99.90;;;;;;10497045;28;20212;-84
